createdAt,value
2022-10-18T00:06:53.728Z,102042.59
2022-10-18T00:14:28.674Z,102043.50
2022-10-18T00:22:02.361Z,102049.81
2022-10-18T00:29:37.400Z,102056.13
2022-10-18T00:37:10.953Z,102055.19
2022-10-18T00:45:16.184Z,102062.31
2022-10-18T00:52:55.196Z,102053.41
2022-10-18T01:00:30.223Z,102062.31
2022-10-18T01:08:12.589Z,102071.28
2022-10-18T01:23:52.265Z,102070.31
2022-10-18T01:31:33.073Z,102057.75
2022-10-18T01:39:10.416Z,102057.69
2022-10-18T01:46:47.155Z,102072.91
2022-10-18T01:54:25.667Z,102057.66
2022-10-18T02:02:08.453Z,102072.91
2022-10-18T02:09:50.483Z,102059.47
2022-10-18T02:17:30.145Z,102060.41
2022-10-18T02:25:09.865Z,102064.91
2022-10-18T02:32:50.426Z,102074.88
2022-10-18T02:40:24.415Z,102080.47
2022-10-18T02:48:00.604Z,102082.81
2022-10-18T02:55:34.680Z,102074.25
2022-10-18T03:03:09.836Z,102079.88
2022-10-18T03:10:44.500Z,102114.06
2022-10-18T03:18:19.614Z,102114.00
2022-10-18T03:25:53.383Z,102088.06
2022-10-18T03:33:28.409Z,102088.09
2022-10-18T03:41:01.942Z,102100.63
2022-10-18T03:48:37.885Z,102096.16
2022-10-18T03:56:11.541Z,102090.78
2022-10-18T04:03:46.727Z,102097.94
2022-10-18T04:11:20.390Z,102100.56
2022-10-18T04:18:56.036Z,102088.81
2022-10-18T04:26:29.684Z,102088.81
2022-10-18T04:34:05.495Z,102093.28
2022-10-18T04:41:39.075Z,102097.69
2022-10-18T04:49:14.486Z,102093.19
2022-10-18T04:56:48.163Z,102099.41
2022-10-18T05:04:23.128Z,102085.06
2022-10-18T05:11:56.733Z,102079.63
2022-10-18T05:19:31.785Z,102080.44
2022-10-18T05:27:05.526Z,102087.56
2022-10-18T05:34:40.753Z,102082.19
2022-10-18T05:42:14.723Z,102079.38
2022-10-18T05:49:49.794Z,102091.91
2022-10-18T05:57:23.404Z,102093.69
2022-10-18T06:04:58.656Z,102089.16
2022-10-18T06:12:32.324Z,102061.31
2022-10-18T06:20:08.831Z,102079.22
2022-10-18T06:27:42.545Z,102063.06
2022-10-18T06:35:17.696Z,102067.50
2022-10-18T06:43:00.216Z,102081.84
2022-10-18T06:50:41.043Z,102081.88
2022-10-18T06:58:14.821Z,102089.09
2022-10-18T07:05:50.078Z,102101.69
2022-10-18T07:13:33.034Z,102114.25
2022-10-18T07:21:10.004Z,102126.88
2022-10-18T07:28:44.603Z,102153.00
2022-10-18T07:36:21.346Z,102156.69
2022-10-18T07:43:55.271Z,102150.47
2022-10-18T07:51:32.437Z,102136.19
2022-10-18T07:59:06.167Z,102140.75
2022-10-18T08:06:42.282Z,102134.38
2022-10-18T08:14:16.074Z,102138.97
2022-10-18T08:21:51.243Z,102139.84
2022-10-18T08:29:29.154Z,102138.09
2022-10-18T08:37:06.111Z,102133.66
2022-10-18T08:44:45.639Z,102132.78
2022-10-18T08:52:32.324Z,102135.50
2022-10-18T09:00:15.489Z,102135.50
2022-10-18T09:08:34.911Z,102132.84
2022-10-18T09:16:15.983Z,102143.63
2022-10-18T09:23:56.514Z,102140.00
2022-10-18T09:31:43.414Z,102138.19
2022-10-18T09:39:23.731Z,102126.50
2022-10-18T09:47:01.629Z,102133.72
2022-10-18T09:54:41.520Z,102140.00
2022-10-18T10:02:17.075Z,102139.16
2022-10-18T10:09:59.543Z,102142.72
2022-10-18T10:17:35.157Z,102143.59
2022-10-18T10:25:22.578Z,102132.78
2022-10-18T10:32:58.095Z,102125.59
2022-10-18T10:40:35.576Z,102120.22
2022-10-18T10:48:15.924Z,102101.38
2022-10-18T10:55:55.225Z,102100.50
2022-10-18T11:03:31.669Z,102096.97
2022-10-18T11:11:22.132Z,102096.09
2022-10-18T11:18:58.619Z,102095.22
2022-10-18T11:26:47.013Z,102096.16
2022-10-18T11:34:41.620Z,102088.09
2022-10-18T11:42:25.385Z,102092.63
2022-10-18T11:50:09.670Z,102089.06
2022-10-18T11:57:56.497Z,102081.97
2022-10-18T12:05:33.608Z,102079.44
2022-10-18T12:13:14.076Z,102066.78
2022-10-18T12:20:50.632Z,102078.47
2022-10-18T12:28:38.133Z,102074.00
2022-10-18T12:36:21.094Z,102070.38
2022-10-18T12:44:00.811Z,102066.84
2022-10-18T12:51:34.485Z,102063.25
2022-10-18T12:59:51.151Z,102056.03
2022-10-18T13:07:43.037Z,102056.97
2022-10-18T13:15:36.342Z,102053.38
2022-10-18T13:23:35.449Z,102048.09
2022-10-18T13:31:20.656Z,102057.19
2022-10-18T13:39:04.906Z,102056.28
2022-10-18T13:47:18.275Z,102061.78
2022-10-18T13:55:07.002Z,102060.13
2022-10-18T14:03:12.735Z,102068.09
2022-10-18T14:11:02.864Z,102075.25
2022-10-18T14:18:41.942Z,102080.63
2022-10-18T14:26:19.761Z,102086.88
2022-10-18T14:33:58.069Z,102095.78
2022-10-18T14:41:35.611Z,102082.38
2022-10-18T14:49:12.781Z,102095.84
2022-10-18T14:56:50.150Z,102092.19
2022-10-18T15:04:31.065Z,102091.28
2022-10-18T15:12:07.530Z,102090.38
2022-10-18T15:19:42.883Z,102082.28
2022-10-18T15:27:25.478Z,102097.44
2022-10-18T15:35:10.269Z,102097.34
2022-10-18T15:42:46.011Z,102097.25
2022-10-18T15:50:38.549Z,102090.91
2022-10-18T15:58:18.242Z,102106.13
2022-10-18T16:05:57.295Z,102098.75
2022-10-18T16:13:32.262Z,102089.50
2022-10-18T16:21:06.126Z,102093.78
2022-10-18T16:28:41.372Z,102106.06
2022-10-18T16:36:17.309Z,102106.69
2022-10-18T16:43:52.731Z,102115.41
2022-10-18T16:51:26.827Z,102126.72
2022-10-18T16:59:02.050Z,102122.84
2022-10-18T17:06:35.791Z,102134.25
2022-10-18T17:14:10.871Z,102131.22
2022-10-18T17:21:44.376Z,102137.06
2022-10-18T17:29:19.604Z,102142.13
2022-10-18T17:36:53.383Z,102140.84
2022-10-18T17:44:28.379Z,102142.31
2022-10-18T17:52:06.116Z,102142.13
2022-10-18T17:59:42.138Z,102157.00
2022-10-18T18:07:16.054Z,102155.69
2022-10-18T18:14:51.365Z,102166.16
2022-10-18T18:22:25.104Z,102175.75
2022-10-18T18:30:00.537Z,102184.41
2022-10-18T18:37:35.442Z,102183.06
2022-10-18T18:45:10.724Z,102187.19
2022-10-18T18:52:44.314Z,102189.66
2022-10-18T19:00:19.528Z,102181.16
2022-10-18T19:07:53.151Z,102181.84
2022-10-18T19:15:28.134Z,102187.91
2022-10-18T19:23:01.550Z,102185.88
2022-10-18T19:30:36.476Z,102190.09
2022-10-18T19:38:10.972Z,102192.59
2022-10-18T19:45:45.964Z,102194.94
2022-10-18T19:53:19.405Z,102196.38
2022-10-18T20:00:55.682Z,102218.59
2022-10-18T20:08:31.319Z,102226.38
2022-10-18T20:16:08.908Z,102224.97
2022-10-18T20:23:44.383Z,102228.28
2022-10-18T20:31:20.678Z,102237.78
2022-10-18T20:38:55.107Z,102241.84
2022-10-18T20:46:32.629Z,102243.38
2022-10-18T20:54:07.934Z,102241.31
2022-10-18T21:01:43.263Z,102244.53
2022-10-18T21:09:19.460Z,102236.16
2022-10-18T21:16:54.572Z,102232.06
2022-10-18T21:24:29.379Z,102238.84
2022-10-18T21:32:04.627Z,102235.66
2022-10-18T21:39:38.455Z,102231.84
2022-10-18T21:47:13.706Z,102228.16
2022-10-18T21:54:47.450Z,102229.69
2022-10-18T22:02:22.454Z,102233.91
2022-10-18T22:09:55.959Z,102235.16
2022-10-18T22:17:31.118Z,102231.25
2022-10-18T22:25:05.960Z,102213.06
2022-10-18T22:32:41.562Z,102211.94
2022-10-18T22:40:15.354Z,102203.13
2022-10-18T22:47:50.345Z,102202.44
2022-10-18T22:55:24.123Z,102201.81
2022-10-18T23:02:59.071Z,102201.81
2022-10-18T23:10:32.603Z,102196.38
2022-10-18T23:18:07.740Z,102193.94
2022-10-18T23:25:42.021Z,102187.25
2022-10-18T23:33:17.159Z,102191.91
2022-10-18T23:40:51.007Z,102198.41
2022-10-18T23:48:26.222Z,102192.44
2022-10-18T23:56:02.467Z,102199.75
